Portada
METAR-TAF:

METAR-TAF

Aeroports :

Malé, Maldives

latitud: 04-12N, longitud: 073-32E, altitud: 2 m

Observació

L'informe es va fer fa 33 minuts, a les 20:00 UTC
Vent 6 kt del Oest/Sud-Oest
Temperatura 29°C
Humitat 74%
Pressió 1012 hPa
Visibilitat 10 km o més
Escasses núvols a una alçada de 1800 ft

METAR: VRMM 072000Z 24006KT 9999 FEW018 29/24 Q1012 NOSIG

Hora: 01:33 (20:33 UTC)

Pronòstic

L'informe es va fer fa 3 hores i 33 minuts, a les 17:00 UTC
Pronòstic vàlid del 07 a les 18 UTC al 08 a les 24 UTC
Vent 8 kt del Oest
Visibilitat 10 km o més
Escasses núvols a una alçada de 1800 ft
Temporalment
l' 07 a les 18 UTC al 07 a les 21 UTC
Escasses núvols a una alçada de 1900 ft, Cumulonimbus.

TAF: VRMM 071700Z 0718/0824 27008KT 9999 FEW018 TEMPO 0718/0721 FEW019CB

Observacions i pronòstics meteorològics de més de 4000 aeroports (METAR i TAF).

Les estacions disponibles són els punts grocs i vermells al mapa.

Posi el ratolí al punt desitjat per veure el nom de l'estació.

Feu clic per veure les observacions i els pronòstics meteorològics.

Per canviar el mapa: feu clic els botons verds amb una creu de color negre per apropar; al botó verd amb un guió per allunyar la imatge; o en les fletxes verdes per a mapes adjacents.


METAR-TAF: